sensor_id;sensor_type;location;lat;lon;timestamp;pressure;altitude;pressure_sealevel;temperature;humidity
17950;BME280;9100;48.700;9.316;2022-08-05T00:00:46;97345.1;;;28.05;86.489
17950;BME280;9100;48.700;9.316;2022-08-05T00:01:46;97351.70000000001;;;28.03;86.021
17950;BME280;9100;48.700;9.316;2022-08-05T00:02:46;97345.2;;;28;85.188
17950;BME280;9100;48.700;9.316;2022-08-05T00:03:46;97339.20000000001;;;28;84.123
17950;BME280;9100;48.700;9.316;2022-08-05T00:04:18;97342.1;;;27.98;83.381
17950;BME280;9100;48.700;9.316;2022-08-05T00:04:46;97343.6;;;27.99;82.794
17950;BME280;9100;48.700;9.316;2022-08-05T00:05:46;97347.40000000001;;;27.98;81.743
17950;BME280;9100;48.700;9.316;2022-08-05T00:06:46;97349.2;;;27.98;81.178
17950;BME280;9100;48.700;9.316;2022-08-05T00:07:46;97348.7;;;27.95;79.382
17950;BME280;9100;48.700;9.316;2022-08-05T00:08:46;97350.9;;;27.93;79.678
17950;BME280;9100;48.700;9.316;2022-08-05T00:09:19;97357.7;;;27.94;79.854
17950;BME280;9100;48.700;9.316;2022-08-05T00:09:46;97353.2;;;27.95;79.911
17950;BME280;9100;48.700;9.316;2022-08-05T00:10:46;97356.1;;;27.93;79.522
17950;BME280;9100;48.700;9.316;2022-08-05T00:11:46;97259.1;;;27.25;79.843
17950;BME280;9100;48.700;9.316;2022-08-05T00:12:46;97352.09999999999;;;27.87;82.332
17950;BME280;9100;48.700;9.316;2022-08-05T00:13:46;97354.8;;;27.82;85.551
17950;BME280;9100;48.700;9.316;2022-08-05T00:14:19;97357;;;27.8;86.133
17950;BME280;9100;48.700;9.316;2022-08-05T00:14:46;97348.6;;;27.78;85.632
17950;BME280;9100;48.700;9.316;2022-08-05T00:15:46;97353;;;27.78;84.413
17950;BME280;9100;48.700;9.316;2022-08-05T00:16:46;97361.2;;;27.76;84.909
17950;BME280;9100;48.700;9.316;2022-08-05T00:17:46;97357.3;;;27.74;86.474
17950;BME280;9100;48.700;9.316;2022-08-05T00:18:46;97360.6;;;27.71;87.673
17950;BME280;9100;48.700;9.316;2022-08-05T00:19:19;97352.5;;;27.67;88.196
17950;BME280;9100;48.700;9.316;2022-08-05T00:19:46;97352.5;;;27.67;89.136
17950;BME280;9100;48.700;9.316;2022-08-05T00:20:46;97350.5;;;27.64;90.425
17950;BME280;9100;48.700;9.316;2022-08-05T00:21:46;97347.29999999999;;;27.62;91.115
17950;BME280;9100;48.700;9.316;2022-08-05T00:22:46;97351.59999999999;;;27.58;91.638
17950;BME280;9100;48.700;9.316;2022-08-05T00:23:46;97342.8;;;27.54;92.039
17950;BME280;9100;48.700;9.316;2022-08-05T00:24:19;97351.3;;;27.51;91.491
17950;BME280;9100;48.700;9.316;2022-08-05T00:24:46;97347.1;;;27.5;91.412
17950;BME280;9100;48.700;9.316;2022-08-05T00:25:46;97358.7;;;27.44;91.696
17950;BME280;9100;48.700;9.316;2022-08-05T00:26:46;97348.8;;;27.41;92.177
17950;BME280;9100;48.700;9.316;2022-08-05T00:27:46;97348.6;;;27.37;92.502
17950;BME280;9100;48.700;9.316;2022-08-05T00:28:46;97351.3;;;27.32;92.691
17950;BME280;9100;48.700;9.316;2022-08-05T00:29:19;97356.9;;;27.31;92.753
17950;BME280;9100;48.700;9.316;2022-08-05T00:29:46;97345.9;;;27.29;92.871
17950;BME280;9100;48.700;9.316;2022-08-05T00:30:46;97345.4;;;27.27;93.319
17950;BME280;9100;48.700;9.316;2022-08-05T00:31:46;97343.4;;;27.24;94.064
17950;BME280;9100;48.700;9.316;2022-08-05T00:32:46;97342.9;;;27.22;94.745
17950;BME280;9100;48.700;9.316;2022-08-05T00:33:46;97339.8;;;27.2;95.015
17950;BME280;9100;48.700;9.316;2022-08-05T00:34:19;97337.2;;;27.2;95.037
17950;BME280;9100;48.700;9.316;2022-08-05T00:34:46;97340.3;;;27.22;95.021
17950;BME280;9100;48.700;9.316;2022-08-05T00:35:46;97281.7;;;26.85;94.523
17950;BME280;9100;48.700;9.316;2022-08-05T00:36:46;97344.7;;;27.21;94.467
17950;BME280;9100;48.700;9.316;2022-08-05T00:37:46;97340.3;;;27.22;94.778
17950;BME280;9100;48.700;9.316;2022-08-05T00:38:46;97332.7;;;27.2;94.498
17950;BME280;9100;48.700;9.316;2022-08-05T00:39:19;97344;;;27.21;94.666
17950;BME280;9100;48.700;9.316;2022-08-05T00:39:46;97348.2;;;27.22;94.558
17950;BME280;9100;48.700;9.316;2022-08-05T00:40:46;97345.5;;;27.22;94.546
17950;BME280;9100;48.700;9.316;2022-08-05T00:41:46;97354.5;;;27.21;93.937
17950;BME280;9100;48.700;9.316;2022-08-05T00:42:46;97354.5;;;27.21;93.639
17950;BME280;9100;48.700;9.316;2022-08-05T00:43:46;97359.2;;;27.19;93.227
17950;BME280;9100;48.700;9.316;2022-08-05T00:44:19;97357.7;;;27.18;93.398
17950;BME280;9100;48.700;9.316;2022-08-05T00:44:46;97361.1;;;27.18;93.633
17950;BME280;9100;48.700;9.316;2022-08-05T00:45:46;97362.09999999999;;;27.17;94.249
17950;BME280;9100;48.700;9.316;2022-08-05T00:46:46;97362;;;27.14;93.965
17950;BME280;9100;48.700;9.316;2022-08-05T00:47:46;97366.7;;;27.12;94.259
17950;BME280;9100;48.700;9.316;2022-08-05T00:48:46;97371.2;;;27.11;94.369
17950;BME280;9100;48.700;9.316;2022-08-05T00:49:19;97367.3;;;27.09;94.076
17950;BME280;9100;48.700;9.316;2022-08-05T00:49:46;97366.2;;;27.1;93.945
17950;BME280;9100;48.700;9.316;2022-08-05T00:50:47;97364.20000000001;;;27.07;93.675
17950;BME280;9100;48.700;9.316;2022-08-05T00:51:46;97356.9;;;27.04;94.099
17950;BME280;9100;48.700;9.316;2022-08-05T00:52:46;97358;;;27.03;94.142
17950;BME280;9100;48.700;9.316;2022-08-05T00:53:46;97353.8;;;27.02;94.238
17950;BME280;9100;48.700;9.316;2022-08-05T00:54:19;97361.7;;;27.02;93.399
17950;BME280;9100;48.700;9.316;2022-08-05T00:54:46;97361.7;;;27.02;93.322
17950;BME280;9100;48.700;9.316;2022-08-05T00:55:46;97357.5;;;27;93.133
17950;BME280;9100;48.700;9.316;2022-08-05T00:56:46;97357;;;26.98;93.844
17950;BME280;9100;48.700;9.316;2022-08-05T00:57:46;97356.5;;;26.96;94.48
17950;BME280;9100;48.700;9.316;2022-08-05T00:58:46;97353.7;;;26.93;94.353
17950;BME280;9100;48.700;9.316;2022-08-05T00:59:19;97345.3;;;26.91;94.779
17950;BME280;9100;48.700;9.316;2022-08-05T00:59:46;97343;;;26.89;95.638
17950;BME280;9100;48.700;9.316;2022-08-05T01:00:46;97345.7;;;26.84;96.607
17950;BME280;9100;48.700;9.316;2022-08-05T01:01:46;97347.79999999999;;;26.82;97.519
17950;BME280;9100;48.700;9.316;2022-08-05T01:02:46;97352.3;;;26.82;98.41
17950;BME280;9100;48.700;9.316;2022-08-05T01:03:46;97349.2;;;26.8;98.825
17950;BME280;9100;48.700;9.316;2022-08-05T01:04:19;97345.3;;;26.77;99.072
17950;BME280;9100;48.700;9.316;2022-08-05T01:04:46;97357.3;;;26.78;99.33
17950;BME280;9100;48.700;9.316;2022-08-05T01:05:46;97368.3;;;26.8;99.765
17950;BME280;9100;48.700;9.316;2022-08-05T01:06:46;97362.3;;;26.8;100
17950;BME280;9100;48.700;9.316;2022-08-05T01:07:46;97367.2;;;26.81;100
17950;BME280;9100;48.700;9.316;2022-08-05T01:08:46;97365.7;;;26.8;100
17950;BME280;9100;48.700;9.316;2022-08-05T01:09:19;97365.20000000001;;;26.78;100
17950;BME280;9100;48.700;9.316;2022-08-05T01:09:46;97369.4;;;26.79;100
17950;BME280;9100;48.700;9.316;2022-08-05T01:10:47;97382;;;26.77;100
17950;BME280;9100;48.700;9.316;2022-08-05T01:11:47;97387.8;;;26.74;100
17950;BME280;9100;48.700;9.316;2022-08-05T01:12:47;97391;;;26.71;100
17950;BME280;9100;48.700;9.316;2022-08-05T01:13:47;97397.29999999999;;;26.7;100
17950;BME280;9100;48.700;9.316;2022-08-05T01:14:19;97396.90000000001;;;26.68;100
17950;BME280;9100;48.700;9.316;2022-08-05T01:14:46;97400.3;;;26.69;100
17950;BME280;9100;48.700;9.316;2022-08-05T01:15:47;97413.7;;;26.67;100
17950;BME280;9100;48.700;9.316;2022-08-05T01:16:48;97420.5;;;26.63;100
17950;BME280;9100;48.700;9.316;2022-08-05T01:17:48;97405.4;;;26.6;99.697
17950;BME280;9100;48.700;9.316;2022-08-05T01:18:46;97396.5;;;26.56;100
17950;BME280;9100;48.700;9.316;2022-08-05T01:19:23;97403.09999999999;;;26.53;100
17950;BME280;9100;48.700;9.316;2022-08-05T01:19:48;97406.5;;;26.54;100
17950;BME280;9100;48.700;9.316;2022-08-05T01:20:48;97403.9;;;26.54;100
17950;BME280;9100;48.700;9.316;2022-08-05T01:21:50;97412.09999999999;;;26.52;99.096
17950;BME280;9100;48.700;9.316;2022-08-05T01:22:52;97411.90000000001;;;26.49;99.398
17950;BME280;9100;48.700;9.316;2022-08-05T01:23:53;97406.9;;;26.47;99.824
17950;BME280;9100;48.700;9.316;2022-08-05T01:24:25;97404.6;;;26.46;99.952
17950;BME280;9100;48.700;9.316;2022-08-05T01:24:50;97415.5;;;26.48;100
17950;BME280;9100;48.700;9.316;2022-08-05T01:25:50;97400.2;;;26.41;99.767
17950;BME280;9100;48.700;9.316;2022-08-05T01:26:49;97421.40000000001;;;26.45;100
17950;BME280;9100;48.700;9.316;2022-08-05T01:27:48;97421.40000000001;;;26.45;99.707
17950;BME280;9100;48.700;9.316;2022-08-05T01:28:47;97423.5;;;26.43;98.7
17950;BME280;9100;48.700;9.316;2022-08-05T01:29:20;97427.20000000001;;;26.42;98.048
17950;BME280;9100;48.700;9.316;2022-08-05T01:29:47;97423.5;;;26.43;98.171
17950;BME280;9100;48.700;9.316;2022-08-05T01:30:47;97419.3;;;26.42;97.298
17950;BME280;9100;48.700;9.316;2022-08-05T01:31:47;97423.29999999999;;;26.39;96.312
17950;BME280;9100;48.700;9.316;2022-08-05T01:32:46;97412;;;26.39;96.586
17950;BME280;9100;48.700;9.316;2022-08-05T01:33:47;97411.2;;;26.38;95.153
17950;BME280;9100;48.700;9.316;2022-08-05T01:34:21;97416;;;26.36;95.425
17950;BME280;9100;48.700;9.316;2022-08-05T01:34:47;97414.9;;;26.37;94.146
17950;BME280;9100;48.700;9.316;2022-08-05T01:35:46;97416.5;;;26.38;92.706
17950;BME280;9100;48.700;9.316;2022-08-05T01:36:49;97415.7;;;26.38;91.889
17950;BME280;9100;48.700;9.316;2022-08-05T01:37:47;97362.09999999999;;;26.06;90.834
17950;BME280;9100;48.700;9.316;2022-08-05T01:38:46;97420.4;;;26.41;88.136
17950;BME280;9100;48.700;9.316;2022-08-05T01:39:19;97419.3;;;26.42;87.95
17950;BME280;9100;48.700;9.316;2022-08-05T01:39:46;97422.40000000001;;;26.44;87.646
17950;BME280;9100;48.700;9.316;2022-08-05T01:40:46;97422.90000000001;;;26.46;85.753
17950;BME280;9100;48.700;9.316;2022-08-05T01:41:46;97425.3;;;26.47;83.155
17950;BME280;9100;48.700;9.316;2022-08-05T01:42:46;97426.8;;;26.48;83.896
17950;BME280;9100;48.700;9.316;2022-08-05T01:43:46;97421.3;;;26.5;84.35
17950;BME280;9100;48.700;9.316;2022-08-05T01:44:19;97427.3;;;26.5;82.257
17950;BME280;9100;48.700;9.316;2022-08-05T01:44:46;97421.8;;;26.52;80.902
17950;BME280;9100;48.700;9.316;2022-08-05T01:45:46;97431.2;;;26.53;79.704
17950;BME280;9100;48.700;9.316;2022-08-05T01:46:46;97427.8;;;26.52;78.093
17950;BME280;9100;48.700;9.316;2022-08-05T01:47:47;97433.5;;;26.54;78.735
17950;BME280;9100;48.700;9.316;2022-08-05T01:48:46;97430.1;;;26.54;78.05
17950;BME280;9100;48.700;9.316;2022-08-05T01:49:19;97436.40000000001;;;26.53;76.992
17950;BME280;9100;48.700;9.316;2022-08-05T01:49:46;97443;;;26.56;76.268
17950;BME280;9100;48.700;9.316;2022-08-05T01:50:46;97439.5;;;26.55;73.533
17950;BME280;9100;48.700;9.316;2022-08-05T01:51:46;97439.3;;;26.57;75.927
17950;BME280;9100;48.700;9.316;2022-08-05T01:52:46;97440.09999999999;;;26.57;72.797
17950;BME280;9100;48.700;9.316;2022-08-05T01:53:47;97440.09999999999;;;26.57;73.403
17950;BME280;9100;48.700;9.316;2022-08-05T01:54:19;97440.8;;;26.58;74.045
17950;BME280;9100;48.700;9.316;2022-08-05T01:54:47;97440.8;;;26.58;74.1
17950;BME280;9100;48.700;9.316;2022-08-05T01:55:46;97447.90000000001;;;26.57;74.274
17950;BME280;9100;48.700;9.316;2022-08-05T01:56:46;97441.09999999999;;;26.56;72.961
17950;BME280;9100;48.700;9.316;2022-08-05T01:57:46;97457.9;;;26.55;72.354
17950;BME280;9100;48.700;9.316;2022-08-05T01:58:46;97453.7;;;26.54;72.537
17950;BME280;9100;48.700;9.316;2022-08-05T01:59:19;97453.4;;;26.56;73.323
17950;BME280;9100;48.700;9.316;2022-08-05T01:59:46;97460.2;;;26.57;73.192
17950;BME280;9100;48.700;9.316;2022-08-05T02:00:48;97464.70000000001;;;26.56;73.413
17950;BME280;9100;48.700;9.316;2022-08-05T02:01:46;97463.09999999999;;;26.55;73.048
17950;BME280;9100;48.700;9.316;2022-08-05T02:02:47;97453.7;;;26.54;73.11
17950;BME280;9100;48.700;9.316;2022-08-05T02:03:46;97459.7;;;26.54;72.814
17950;BME280;9100;48.700;9.316;2022-08-05T02:04:19;97457.1;;;26.54;72.837
17950;BME280;9100;48.700;9.316;2022-08-05T02:04:46;97462.90000000001;;;26.57;72.862
17950;BME280;9100;48.700;9.316;2022-08-05T02:05:46;97456.9;;;26.56;73.457
17950;BME280;9100;48.700;9.316;2022-08-05T02:06:46;97460.5;;;26.55;72.573
17950;BME280;9100;48.700;9.316;2022-08-05T02:07:46;97456.3;;;26.54;72.956
17950;BME280;9100;48.700;9.316;2022-08-05T02:08:46;97461.6;;;26.54;73.177
17950;BME280;9100;48.700;9.316;2022-08-05T02:09:19;97457.4;;;26.53;72.824
17950;BME280;9100;48.700;9.316;2022-08-05T02:09:46;97455.6;;;26.53;72.493
17950;BME280;9100;48.700;9.316;2022-08-05T02:10:47;97463.09999999999;;;26.55;72.981
17950;BME280;9100;48.700;9.316;2022-08-05T02:11:47;97466.8;;;26.54;72.46
17950;BME280;9100;48.700;9.316;2022-08-05T02:12:48;97458.5;;;26.52;72.931
17950;BME280;9100;48.700;9.316;2022-08-05T02:13:50;97464.8;;;26.51;72.843
17950;BME280;9100;48.700;9.316;2022-08-05T02:14:20;97466.6;;;26.5;72.951
17950;BME280;9100;48.700;9.316;2022-08-05T02:14:46;97466.3;;;26.52;73.074
17950;BME280;9100;48.700;9.316;2022-08-05T02:15:49;97462.90000000001;;;26.51;72.622
17950;BME280;9100;48.700;9.316;2022-08-05T02:16:47;97463.7;;;26.52;73.009
17950;BME280;9100;48.700;9.316;2022-08-05T02:17:47;97463.7;;;26.52;73.351
17950;BME280;9100;48.700;9.316;2022-08-05T02:18:47;97468.5;;;26.5;72.553
17950;BME280;9100;48.700;9.316;2022-08-05T02:19:19;97463.3;;;26.5;72.366
17950;BME280;9100;48.700;9.316;2022-08-05T02:19:47;97460.6;;;26.5;72.652
17950;BME280;9100;48.700;9.316;2022-08-05T02:20:47;97465.09999999999;;;26.49;73.017
17950;BME280;9100;48.700;9.316;2022-08-05T02:21:48;97458;;;26.5;72.156
17950;BME280;9100;48.700;9.316;2022-08-05T02:22:47;97456.9;;;26.51;72.645
17950;BME280;9100;48.700;9.316;2022-08-05T02:23:47;97464;;;26.5;72.886
17950;BME280;9100;48.700;9.316;2022-08-05T02:24:20;97460.6;;;26.5;72.906
17950;BME280;9100;48.700;9.316;2022-08-05T02:24:47;97458.8;;;26.5;72.775
17950;BME280;9100;48.700;9.316;2022-08-05T02:25:46;97459.5;;;26.51;72.347
17950;BME280;9100;48.700;9.316;2022-08-05T02:26:47;97467.4;;;26.51;72.722
17950;BME280;9100;48.700;9.316;2022-08-05T02:27:46;97471.90000000001;;;26.5;72.654
17950;BME280;9100;48.700;9.316;2022-08-05T02:28:46;97468.5;;;26.5;72.421
17950;BME280;9100;48.700;9.316;2022-08-05T02:29:20;97464.8;;;26.51;72.457
17950;BME280;9100;48.700;9.316;2022-08-05T02:29:46;97466.6;;;26.5;72.731
17950;BME280;9100;48.700;9.316;2022-08-05T02:30:47;97471.90000000001;;;26.5;72.599
17950;BME280;9100;48.700;9.316;2022-08-05T02:31:46;97474.8;;;26.49;72.443
17950;BME280;9100;48.700;9.316;2022-08-05T02:32:46;97470.6;;;26.48;72.737
17950;BME280;9100;48.700;9.316;2022-08-05T02:33:47;97474;;;26.48;72.75
17950;BME280;9100;48.700;9.316;2022-08-05T02:34:19;97475.8;;;26.48;73.013
17950;BME280;9100;48.700;9.316;2022-08-05T02:34:46;97476.4;;;26.5;72.917
17950;BME280;9100;48.700;9.316;2022-08-05T02:35:46;97475.59999999999;;;26.49;72.817
17950;BME280;9100;48.700;9.316;2022-08-05T02:36:47;97477.4;;;26.49;72.564
17950;BME280;9100;48.700;9.316;2022-08-05T02:37:46;97482.7;;;26.49;72.167
17950;BME280;9100;48.700;9.316;2022-08-05T02:38:47;97480.3;;;26.47;72.66
17950;BME280;9100;48.700;9.316;2022-08-05T02:39:20;97484.5;;;26.48;72.761
17950;BME280;9100;48.700;9.316;2022-08-05T02:39:46;97480;;;26.49;72.983
17950;BME280;9100;48.700;9.316;2022-08-05T02:40:46;97475.59999999999;;;26.49;73.049
17950;BME280;9100;48.700;9.316;2022-08-05T02:41:46;97480;;;26.49;72.696
17950;BME280;9100;48.700;9.316;2022-08-05T02:42:46;97472.40000000001;;;26.47;72.66
17950;BME280;9100;48.700;9.316;2022-08-05T02:43:46;97473.2;;;26.48;73.046
17950;BME280;9100;48.700;9.316;2022-08-05T02:44:19;97475.09999999999;;;26.47;73.212
17950;BME280;9100;48.700;9.316;2022-08-05T02:44:46;97474.8;;;26.49;72.851
17950;BME280;9100;48.700;9.316;2022-08-05T02:45:46;97468.5;;;26.5;72.939
17950;BME280;9100;48.700;9.316;2022-08-05T02:46:46;97465.09999999999;;;26.49;73.38
17950;BME280;9100;48.700;9.316;2022-08-05T02:47:46;97470.3;;;26.49;73.876
17950;BME280;9100;48.700;9.316;2022-08-05T02:48:46;97465.4;;;26.48;73.928
17950;BME280;9100;48.700;9.316;2022-08-05T02:49:19;97471.7;;;26.47;74.094
17950;BME280;9100;48.700;9.316;2022-08-05T02:49:46;97466.4;;;26.47;74.138
17950;BME280;9100;48.700;9.316;2022-08-05T02:50:46;97471.7;;;26.47;74.005
17950;BME280;9100;48.700;9.316;2022-08-05T02:51:46;97475.40000000001;;;26.46;73.639
17950;BME280;9100;48.700;9.316;2022-08-05T02:52:46;97471.5;;;26.43;73.657
17950;BME280;9100;48.700;9.316;2022-08-05T02:53:46;97475.2;;;26.42;73.876
17950;BME280;9100;48.700;9.316;2022-08-05T02:54:19;97479.6;;;26.42;74.547
17950;BME280;9100;48.700;9.316;2022-08-05T02:54:46;97477;;;26.42;74.712
17950;BME280;9100;48.700;9.316;2022-08-05T02:55:47;97468.6;;;26.4;74.588
17950;BME280;9100;48.700;9.316;2022-08-05T02:56:46;97476;;;26.38;75.312
17950;BME280;9100;48.700;9.316;2022-08-05T02:57:46;97482.3;;;26.37;75.101
17950;BME280;9100;48.700;9.316;2022-08-05T02:58:46;97479.2;;;26.35;75.615
17950;BME280;9100;48.700;9.316;2022-08-05T02:59:19;97480.2;;;26.34;76.132
17950;BME280;9100;48.700;9.316;2022-08-05T02:59:47;97483.7;;;26.34;76.253
17950;BME280;9100;48.700;9.316;2022-08-05T03:00:46;97480.5;;;26.32;75.82
17950;BME280;9100;48.700;9.316;2022-08-05T03:01:46;97484.5;;;26.3;75.993
17950;BME280;9100;48.700;9.316;2022-08-05T03:02:46;97482.4;;;26.27;76.33
17950;BME280;9100;48.700;9.316;2022-08-05T03:03:47;97443.7;;;26.05;76.28
17950;BME280;9100;48.700;9.316;2022-08-05T03:04:19;97480.9;;;26.26;76.163
17950;BME280;9100;48.700;9.316;2022-08-05T03:04:46;97485.1;;;26.27;76.087
17950;BME280;9100;48.700;9.316;2022-08-05T03:05:46;97482.4;;;26.27;76.308
17950;BME280;9100;48.700;9.316;2022-08-05T03:06:46;97489.8;;;26.25;76.382
17950;BME280;9100;48.700;9.316;2022-08-05T03:07:46;97480.4;;;26.24;76.345
17950;BME280;9100;48.700;9.316;2022-08-05T03:08:46;97487.8;;;26.22;76.419
17950;BME280;9100;48.700;9.316;2022-08-05T03:09:19;97486.7;;;26.23;76.444
17950;BME280;9100;48.700;9.316;2022-08-05T03:09:46;97487;;;26.21;76.584
17950;BME280;9100;48.700;9.316;2022-08-05T03:10:46;97495.1;;;26.2;76.525
17950;BME280;9100;48.700;9.316;2022-08-05T03:11:46;97487.3;;;26.2;76.559
17950;BME280;9100;48.700;9.316;2022-08-05T03:12:46;97492.8;;;26.18;76.833
17950;BME280;9100;48.700;9.316;2022-08-05T03:13:47;97488.59999999999;;;26.17;76.765
17950;BME280;9100;48.700;9.316;2022-08-05T03:14:19;97491.5;;;26.16;76.739
17950;BME280;9100;48.700;9.316;2022-08-05T03:14:46;97492.3;;;26.16;77.006
17950;BME280;9100;48.700;9.316;2022-08-05T03:15:46;97491.5;;;26.16;77.434
17950;BME280;9100;48.700;9.316;2022-08-05T03:16:46;97488.3;;;26.14;77.54
17950;BME280;9100;48.700;9.316;2022-08-05T03:17:46;97487.59999999999;;;26.13;77.924
17950;BME280;9100;48.700;9.316;2022-08-05T03:18:46;97485.2;;;26.12;78.088
17950;BME280;9100;48.700;9.316;2022-08-05T03:19:19;97489.70000000001;;;26.11;78.163
17950;BME280;9100;48.700;9.316;2022-08-05T03:19:46;97483.7;;;26.11;78.251
17950;BME280;9100;48.700;9.316;2022-08-05T03:20:46;97492.6;;;26.1;78.889
17950;BME280;9100;48.700;9.316;2022-08-05T03:21:46;97489.5;;;26.08;79.436
17950;BME280;9100;48.700;9.316;2022-08-05T03:22:46;97489.5;;;26.08;79.646
17950;BME280;9100;48.700;9.316;2022-08-05T03:23:46;97495.8;;;26.06;80.139
17950;BME280;9100;48.700;9.316;2022-08-05T03:24:19;97493.2;;;26.06;80.194
17950;BME280;9100;48.700;9.316;2022-08-05T03:24:47;97499.2;;;26.07;80.437
17950;BME280;9100;48.700;9.316;2022-08-05T03:25:46;97500;;;26.08;80.637
17950;BME280;9100;48.700;9.316;2022-08-05T03:26:46;97487.09999999999;;;26.06;81.459
17950;BME280;9100;48.700;9.316;2022-08-05T03:27:46;97489;;;26.05;81.382
17950;BME280;9100;48.700;9.316;2022-08-05T03:28:46;97499;;;26.03;81.874
17950;BME280;9100;48.700;9.316;2022-08-05T03:29:19;97500.8;;;26.03;82.191
17950;BME280;9100;48.700;9.316;2022-08-05T03:29:46;97498.2;;;26.03;82.533
17950;BME280;9100;48.700;9.316;2022-08-05T03:30:46;97498.2;;;26.03;82.489
17950;BME280;9100;48.700;9.316;2022-08-05T03:31:46;97494.3;;;26;82.517
17950;BME280;9100;48.700;9.316;2022-08-05T03:32:46;97495.1;;;26.01;82.584
17950;BME280;9100;48.700;9.316;2022-08-05T03:33:46;97496.40000000001;;;25.98;82.513
17950;BME280;9100;48.700;9.316;2022-08-05T03:34:19;97496.40000000001;;;25.98;82.326
17950;BME280;9100;48.700;9.316;2022-08-05T03:34:46;97492.7;;;25.99;82.187
17950;BME280;9100;48.700;9.316;2022-08-05T03:35:46;97500.9;;;25.98;82.502
17950;BME280;9100;48.700;9.316;2022-08-05T03:36:46;97503.8;;;25.96;82.664
17950;BME280;9100;48.700;9.316;2022-08-05T03:37:46;97497.7;;;25.96;83.115
17950;BME280;9100;48.700;9.316;2022-08-05T03:38:46;97502.20000000001;;;25.95;83.181
17950;BME280;9100;48.700;9.316;2022-08-05T03:39:19;97505.1;;;25.94;83.519
17950;BME280;9100;48.700;9.316;2022-08-05T03:39:53;97503.3;;;25.94;83.651
17950;BME280;9100;48.700;9.316;2022-08-05T03:40:46;97504;;;25.95;83.84
17950;BME280;9100;48.700;9.316;2022-08-05T03:41:46;97510.40000000001;;;25.94;84.543
17950;BME280;9100;48.700;9.316;2022-08-05T03:42:46;97511.7;;;25.91;84.537
17950;BME280;9100;48.700;9.316;2022-08-05T03:43:46;97510.40000000001;;;25.89;84.347
17950;BME280;9100;48.700;9.316;2022-08-05T03:44:19;97515.9;;;25.87;84.794
17950;BME280;9100;48.700;9.316;2022-08-05T03:44:46;97513.3;;;25.87;84.96
17950;BME280;9100;48.700;9.316;2022-08-05T03:45:46;97507.8;;;25.84;85.426
17950;BME280;9100;48.700;9.316;2022-08-05T03:46:46;97503.7;;;25.83;84.886
17950;BME280;9100;48.700;9.316;2022-08-05T03:47:46;97504;;;25.81;84.837
17950;BME280;9100;48.700;9.316;2022-08-05T03:48:46;97503.5;;;25.79;85.163
17950;BME280;9100;48.700;9.316;2022-08-05T03:49:19;97508.2;;;25.77;85.324
17950;BME280;9100;48.700;9.316;2022-08-05T03:49:46;97505.6;;;25.77;85.698
17950;BME280;9100;48.700;9.316;2022-08-05T03:50:49;97515.3;;;25.77;86.084
17950;BME280;9100;48.700;9.316;2022-08-05T03:51:49;97507.7;;;25.75;86.322
17950;BME280;9100;48.700;9.316;2022-08-05T03:52:48;97514.8;;;25.75;85.894
17950;BME280;9100;48.700;9.316;2022-08-05T03:53:48;97510.79999999999;;;25.72;85.823
17950;BME280;9100;48.700;9.316;2022-08-05T03:54:20;97522.40000000001;;;25.71;85.71
17950;BME280;9100;48.700;9.316;2022-08-05T03:54:47;97511.90000000001;;;25.71;85.566
17950;BME280;9100;48.700;9.316;2022-08-05T03:55:48;97518;;;25.72;85.602
17950;BME280;9100;48.700;9.316;2022-08-05T03:56:46;97522.40000000001;;;25.71;86.304
17950;BME280;9100;48.700;9.316;2022-08-05T03:57:46;97511.40000000001;;;25.69;86.686
17950;BME280;9100;48.700;9.316;2022-08-05T03:58:46;97518.8;;;25.67;86.417
17950;BME280;9100;48.700;9.316;2022-08-05T03:59:20;97519;;;25.66;86.316
17950;BME280;9100;48.700;9.316;2022-08-05T03:59:48;97517.5;;;25.65;86.191
17950;BME280;9100;48.700;9.316;2022-08-05T04:00:46;97511.7;;;25.63;86.463
17950;BME280;9100;48.700;9.316;2022-08-05T04:01:46;97510.5;;;25.6;86.481
17950;BME280;9100;48.700;9.316;2022-08-05T04:02:47;97510;;;25.58;86.377
17950;BME280;9100;48.700;9.316;2022-08-05T04:03:46;97504.2;;;25.56;86.714
17950;BME280;9100;48.700;9.316;2022-08-05T04:04:19;97504.2;;;25.56;86.615
17950;BME280;9100;48.700;9.316;2022-08-05T04:04:46;97507.9;;;25.55;86.736
17950;BME280;9100;48.700;9.316;2022-08-05T04:05:46;97507.4;;;25.53;87.096
17950;BME280;9100;48.700;9.316;2022-08-05T04:06:46;97505.3;;;25.5;86.89
17950;BME280;9100;48.700;9.316;2022-08-05T04:07:46;97498.8;;;25.47;87.194
17950;BME280;9100;48.700;9.316;2022-08-05T04:08:46;97496;;;25.44;87.956
17950;BME280;9100;48.700;9.316;2022-08-05T04:09:19;97496.8;;;25.39;88.299
17950;BME280;9100;48.700;9.316;2022-08-05T04:09:46;97494.5;;;25.38;88.374
17950;BME280;9100;48.700;9.316;2022-08-05T04:10:46;97493.4;;;25.34;88.938
17950;BME280;9100;48.700;9.316;2022-08-05T04:11:46;97495.5;;;25.32;89.308
17950;BME280;9100;48.700;9.316;2022-08-05T04:12:46;97495.3;;;25.28;89.707
17950;BME280;9100;48.700;9.316;2022-08-05T04:13:46;97500.3;;;25.25;90.392
17950;BME280;9100;48.700;9.316;2022-08-05T04:14:19;97490.09999999999;;;25.23;90.511
17950;BME280;9100;48.700;9.316;2022-08-05T04:14:46;97490.09999999999;;;25.23;90.653
17950;BME280;9100;48.700;9.316;2022-08-05T04:15:46;97497.2;;;25.23;90.904
17950;BME280;9100;48.700;9.316;2022-08-05T04:16:46;97495.6;;;25.22;91.243
17950;BME280;9100;48.700;9.316;2022-08-05T04:17:46;97506.9;;;25.22;91.069
17950;BME280;9100;48.700;9.316;2022-08-05T04:18:46;97510.29999999999;;;25.23;91.663
17950;BME280;9100;48.700;9.316;2022-08-05T04:19:19;97509.2;;;25.24;92.039
17950;BME280;9100;48.700;9.316;2022-08-05T04:19:47;97508.2;;;25.25;92.03
17950;BME280;9100;48.700;9.316;2022-08-05T04:20:51;97511.3;;;25.27;91.913
17950;BME280;9100;48.700;9.316;2022-08-05T04:21:46;97509.5;;;25.27;92.85
17950;BME280;9100;48.700;9.316;2022-08-05T04:22:46;97516.2;;;25.28;93.215
17950;BME280;9100;48.700;9.316;2022-08-05T04:23:46;97525.9;;;25.28;92.498
17950;BME280;9100;48.700;9.316;2022-08-05T04:24:19;97523.29999999999;;;25.28;92.41